sensor_id;sensor_type;location;lat;lon;timestamp;pressure;altitude;pressure_sealevel;temperature;humidity
58471;BME280;44258;51.288;12.068;2023-02-12T00:00:57;102402.88;;;5.88;76.01
58471;BME280;44258;51.288;12.068;2023-02-12T00:03:25;102395.81;;;5.81;76.30
58471;BME280;44258;51.288;12.068;2023-02-12T00:05:51;102394.00;;;5.87;75.99
58471;BME280;44258;51.288;12.068;2023-02-12T00:08:17;102399.31;;;5.90;76.14
58471;BME280;44258;51.288;12.068;2023-02-12T00:10:44;102411.78;;;5.82;76.31
58471;BME280;44258;51.288;12.068;2023-02-12T00:13:13;102405.56;;;5.92;76.22
58471;BME280;44258;51.288;12.068;2023-02-12T00:15:41;102408.25;;;5.96;76.18
58471;BME280;44258;51.288;12.068;2023-02-12T00:18:08;102410.03;;;5.93;75.97
58471;BME280;44258;51.288;12.068;2023-02-12T00:20:37;102408.25;;;5.82;76.31
58471;BME280;44258;51.288;12.068;2023-02-12T00:23:04;102407.38;;;5.81;76.51
58471;BME280;44258;51.288;12.068;2023-02-12T00:25:31;102406.47;;;5.76;76.79
58471;BME280;44258;51.288;12.068;2023-02-12T00:27:57;102411.81;;;5.76;76.73
58471;BME280;44258;51.288;12.068;2023-02-12T00:30:24;102410.03;;;5.72;77.14
58471;BME280;44258;51.288;12.068;2023-02-12T00:32:50;102392.25;;;5.76;76.68
58471;BME280;44258;51.288;12.068;2023-02-12T00:35:17;102399.38;;;5.75;77.16
58471;BME280;44258;51.288;12.068;2023-02-12T00:37:45;102399.38;;;5.67;77.53
58471;BME280;44258;51.288;12.068;2023-02-12T00:40:12;102409.16;;;5.79;77.52
58471;BME280;44258;51.288;12.068;2023-02-12T00:42:38;102403.78;;;5.82;76.97
58471;BME280;44258;51.288;12.068;2023-02-12T00:45:06;102411.81;;;5.81;77.35
58471;BME280;44258;51.288;12.068;2023-02-12T00:47:32;102401.09;;;5.90;76.99
58471;BME280;44258;51.288;12.068;2023-02-12T00:49:59;102408.25;;;5.91;76.73
58471;BME280;44258;51.288;12.068;2023-02-12T00:52:26;102409.13;;;5.94;76.45
58471;BME280;44258;51.288;12.068;2023-02-12T00:54:53;102405.56;;;5.89;76.21
58471;BME280;44258;51.288;12.068;2023-02-12T00:57:20;102418.91;;;5.86;76.47
58471;BME280;44258;51.288;12.068;2023-02-12T00:59:49;102418.94;;;5.85;76.59
58471;BME280;44258;51.288;12.068;2023-02-12T01:02:16;102423.38;;;5.87;76.23
58471;BME280;44258;51.288;12.068;2023-02-12T01:04:43;102422.47;;;5.85;76.26
58471;BME280;44258;51.288;12.068;2023-02-12T01:07:09;102425.13;;;5.90;75.88
58471;BME280;44258;51.288;12.068;2023-02-12T01:09:38;102418.94;;;5.83;76.33
58471;BME280;44258;51.288;12.068;2023-02-12T01:12:07;102422.50;;;5.78;76.60
58471;BME280;44258;51.288;12.068;2023-02-12T01:14:33;102420.72;;;5.78;76.67
58471;BME280;44258;51.288;12.068;2023-02-12T01:17:00;102428.75;;;5.75;76.78
58471;BME280;44258;51.288;12.068;2023-02-12T01:19:26;102423.41;;;5.67;77.35
58471;BME280;44258;51.288;12.068;2023-02-12T01:21:53;102425.19;;;5.70;76.92
58471;BME280;44258;51.288;12.068;2023-02-12T01:24:20;102422.53;;;5.74;77.37
58471;BME280;44258;51.288;12.068;2023-02-12T01:26:47;102426.06;;;5.83;77.39
58471;BME280;44258;51.288;12.068;2023-02-12T01:29:15;102427.81;;;5.76;77.88
58471;BME280;44258;51.288;12.068;2023-02-12T01:31:41;102416.28;;;5.77;78.20
58471;BME280;44258;51.288;12.068;2023-02-12T01:34:10;102428.75;;;5.77;78.93
58471;BME280;44258;51.288;12.068;2023-02-12T01:36:38;102426.94;;;5.96;78.11
58471;BME280;44258;51.288;12.068;2023-02-12T01:39:05;102418.91;;;6.03;77.67
58471;BME280;44258;51.288;12.068;2023-02-12T01:41:35;102423.38;;;6.01;78.34
58471;BME280;44258;51.288;12.068;2023-02-12T01:44:08;102421.59;;;5.96;78.40
58471;BME280;44258;51.288;12.068;2023-02-12T01:46:37;102421.56;;;5.99;78.79
58471;BME280;44258;51.288;12.068;2023-02-12T01:49:06;102428.69;;;5.97;78.61
58471;BME280;44258;51.288;12.068;2023-02-12T01:51:34;102422.47;;;5.90;80.00
58471;BME280;44258;51.288;12.068;2023-02-12T01:54:04;102417.13;;;6.07;78.96
58471;BME280;44258;51.288;12.068;2023-02-12T01:56:33;102417.94;;;6.21;78.08
58471;BME280;44258;51.288;12.068;2023-02-12T01:59:00;102423.25;;;6.23;78.00
58471;BME280;44258;51.288;12.068;2023-02-12T02:01:28;102415.25;;;6.23;77.73
58471;BME280;44258;51.288;12.068;2023-02-12T02:03:59;102426.88;;;6.14;78.75
58471;BME280;44258;51.288;12.068;2023-02-12T02:06:31;102417.03;;;6.24;77.98
58471;BME280;44258;51.288;12.068;2023-02-12T02:08:59;102417.03;;;6.21;77.85
58471;BME280;44258;51.288;12.068;2023-02-12T02:11:26;102428.63;;;6.18;77.69
58471;BME280;44258;51.288;12.068;2023-02-12T02:14:10;102423.25;;;6.23;77.75
58471;BME280;44258;51.288;12.068;2023-02-12T02:17:02;102430.41;;;6.16;77.79
58471;BME280;44258;51.288;12.068;2023-02-12T02:19:49;102422.44;;;6.13;77.79
58471;BME280;44258;51.288;12.068;2023-02-12T02:22:27;102417.03;;;6.22;77.51
58471;BME280;44258;51.288;12.068;2023-02-12T02:25:22;102421.53;;;6.14;77.89
58471;BME280;44258;51.288;12.068;2023-02-12T02:27:56;102417.81;;;6.46;76.31
58471;BME280;44258;51.288;12.068;2023-02-12T02:30:37;102417.00;;;6.31;76.35
58471;BME280;44258;51.288;12.068;2023-02-12T02:33:18;102410.81;;;6.23;76.81
58471;BME280;44258;51.288;12.068;2023-02-12T02:35:52;102422.41;;;6.19;77.08
58471;BME280;44258;51.288;12.068;2023-02-12T02:38:24;102421.47;;;6.26;76.78
58471;BME280;44258;51.288;12.068;2023-02-12T02:41:00;102423.28;;;6.21;77.11
58471;BME280;44258;51.288;12.068;2023-02-12T02:43:34;102423.28;;;6.18;77.05
58471;BME280;44258;51.288;12.068;2023-02-12T02:46:06;102416.19;;;6.17;77.27
58471;BME280;44258;51.288;12.068;2023-02-12T02:48:36;102416.13;;;6.29;76.91
58471;BME280;44258;51.288;12.068;2023-02-12T02:51:09;102415.22;;;6.33;76.78
58471;BME280;44258;51.288;12.068;2023-02-12T02:53:41;102414.31;;;6.33;76.69
58471;BME280;44258;51.288;12.068;2023-02-12T02:56:13;102415.22;;;6.33;76.50
58471;BME280;44258;51.288;12.068;2023-02-12T02:58:43;102416.09;;;6.31;76.89
58471;BME280;44258;51.288;12.068;2023-02-12T03:01:16;102424.09;;;6.31;76.49
58471;BME280;44258;51.288;12.068;2023-02-12T03:03:46;102419.69;;;6.28;76.85
58471;BME280;44258;51.288;12.068;2023-02-12T03:06:19;102425.91;;;6.30;77.07
58471;BME280;44258;51.288;12.068;2023-02-12T03:08:50;102414.34;;;6.30;76.77
58471;BME280;44258;51.288;12.068;2023-02-12T03:11:24;102428.59;;;6.24;77.00
58471;BME280;44258;51.288;12.068;2023-02-12T03:13:56;102439.28;;;6.27;76.50
58471;BME280;44258;51.288;12.068;2023-02-12T03:16:28;102435.69;;;6.34;76.32
58471;BME280;44258;51.288;12.068;2023-02-12T03:19:02;102433.88;;;6.40;76.33
58471;BME280;44258;51.288;12.068;2023-02-12T03:21:34;102432.97;;;6.39;76.17
58471;BME280;44258;51.288;12.068;2023-02-12T03:24:10;102432.16;;;6.29;76.39
58471;BME280;44258;51.288;12.068;2023-02-12T03:26:42;102433.94;;;6.24;76.71
58471;BME280;44258;51.288;12.068;2023-02-12T03:29:11;102441.94;;;6.29;76.92
58471;BME280;44258;51.288;12.068;2023-02-12T03:31:48;102442.00;;;6.20;77.24
58471;BME280;44258;51.288;12.068;2023-02-12T03:34:24;102445.53;;;6.22;77.29
58471;BME280;44258;51.288;12.068;2023-02-12T03:36:55;102445.50;;;6.28;76.91
58471;BME280;44258;51.288;12.068;2023-02-12T03:39:29;102447.31;;;6.24;77.16
58471;BME280;44258;51.288;12.068;2023-02-12T03:42:01;102454.41;;;6.30;76.86
58471;BME280;44258;51.288;12.068;2023-02-12T03:44:42;102452.66;;;6.27;77.06
58471;BME280;44258;51.288;12.068;2023-02-12T03:47:20;102455.31;;;6.26;77.49
58471;BME280;44258;51.288;12.068;2023-02-12T03:49:54;102454.44;;;6.22;77.65
58471;BME280;44258;51.288;12.068;2023-02-12T03:52:25;102453.56;;;6.20;77.31
58471;BME280;44258;51.288;12.068;2023-02-12T03:54:51;102454.44;;;6.24;77.70
58471;BME280;44258;51.288;12.068;2023-02-12T03:57:19;102462.44;;;6.28;77.29
58471;BME280;44258;51.288;12.068;2023-02-12T03:59:48;102470.41;;;6.33;77.50
58471;BME280;44258;51.288;12.068;2023-02-12T04:02:18;102471.34;;;6.27;77.40
58471;BME280;44258;51.288;12.068;2023-02-12T04:04:46;102475.75;;;6.34;77.31
58471;BME280;44258;51.288;12.068;2023-02-12T04:07:13;102469.53;;;6.36;77.26
58471;BME280;44258;51.288;12.068;2023-02-12T04:09:41;102467.75;;;6.38;77.33
58471;BME280;44258;51.288;12.068;2023-02-12T04:12:19;102476.63;;;6.43;76.78
58471;BME280;44258;51.288;12.068;2023-02-12T04:14:52;102480.19;;;6.39;76.98
58471;BME280;44258;51.288;12.068;2023-02-12T04:17:29;102482.00;;;6.40;77.17
58471;BME280;44258;51.288;12.068;2023-02-12T04:20:07;102478.41;;;6.42;76.88
58471;BME280;44258;51.288;12.068;2023-02-12T04:22:44;102478.41;;;6.41;76.41
58471;BME280;44258;51.288;12.068;2023-02-12T04:25:20;102475.72;;;6.41;76.55
58471;BME280;44258;51.288;12.068;2023-02-12T04:27:56;102481.13;;;6.31;76.67
58471;BME280;44258;51.288;12.068;2023-02-12T04:30:28;102490.94;;;6.28;77.30
58471;BME280;44258;51.288;12.068;2023-02-12T04:33:02;102497.16;;;6.31;76.96
58471;BME280;44258;51.288;12.068;2023-02-12T04:35:32;102496.28;;;6.28;76.97
58471;BME280;44258;51.288;12.068;2023-02-12T04:38:04;102506.97;;;6.20;76.79
58471;BME280;44258;51.288;12.068;2023-02-12T04:40:34;102502.53;;;6.25;77.34
58471;BME280;44258;51.288;12.068;2023-02-12T04:43:01;102510.53;;;6.24;77.04
58471;BME280;44258;51.288;12.068;2023-02-12T04:45:29;102516.75;;;6.29;77.12
58471;BME280;44258;51.288;12.068;2023-02-12T04:47:56;102523.00;;;6.26;77.37
58471;BME280;44258;51.288;12.068;2023-02-12T04:50:24;102514.97;;;6.36;77.07
58471;BME280;44258;51.288;12.068;2023-02-12T04:52:52;102517.59;;;6.42;76.96
58471;BME280;44258;51.288;12.068;2023-02-12T04:55:18;102510.47;;;6.39;76.77
58471;BME280;44258;51.288;12.068;2023-02-12T04:57:45;102516.69;;;6.41;76.61
58471;BME280;44258;51.288;12.068;2023-02-12T05:00:13;102516.66;;;6.47;76.68
58471;BME280;44258;51.288;12.068;2023-02-12T05:02:40;102508.66;;;6.50;76.15
58471;BME280;44258;51.288;12.068;2023-02-12T05:05:07;102512.25;;;6.45;76.29
58471;BME280;44258;51.288;12.068;2023-02-12T05:07:34;102520.25;;;6.45;76.41
58471;BME280;44258;51.288;12.068;2023-02-12T05:10:02;102506.88;;;6.45;76.16
58471;BME280;44258;51.288;12.068;2023-02-12T05:12:28;102519.34;;;6.49;76.54
58471;BME280;44258;51.288;12.068;2023-02-12T05:14:55;102513.13;;;6.48;76.03
58471;BME280;44258;51.288;12.068;2023-02-12T05:17:23;102514.91;;;6.46;76.40
58471;BME280;44258;51.288;12.068;2023-02-12T05:19:50;102515.78;;;6.45;76.80
58471;BME280;44258;51.288;12.068;2023-02-12T05:22:16;102509.56;;;6.43;76.50
58471;BME280;44258;51.288;12.068;2023-02-12T05:24:44;102512.25;;;6.39;76.51
58471;BME280;44258;51.288;12.068;2023-02-12T05:27:11;102506.91;;;6.40;76.57
58471;BME280;44258;51.288;12.068;2023-02-12T05:29:38;102509.53;;;6.49;76.40
58471;BME280;44258;51.288;12.068;2023-02-12T05:32:05;102509.50;;;6.56;75.86
58471;BME280;44258;51.288;12.068;2023-02-12T05:34:32;102505.94;;;6.61;76.08
58471;BME280;44258;51.288;12.068;2023-02-12T05:36:59;102513.03;;;6.64;75.53
58471;BME280;44258;51.288;12.068;2023-02-12T05:39:28;102511.31;;;6.55;75.93
58471;BME280;44258;51.288;12.068;2023-02-12T05:41:56;102522.91;;;6.51;75.92
58471;BME280;44258;51.288;12.068;2023-02-12T05:44:22;102514.91;;;6.43;76.18
58471;BME280;44258;51.288;12.068;2023-02-12T05:46:49;102519.38;;;6.46;76.28
58471;BME280;44258;51.288;12.068;2023-02-12T05:49:15;102514.91;;;6.46;76.28
58471;BME280;44258;51.288;12.068;2023-02-12T05:51:42;102513.13;;;6.45;76.14
58471;BME280;44258;51.288;12.068;2023-02-12T05:54:08;102520.25;;;6.46;76.28
58471;BME280;44258;51.288;12.068;2023-02-12T05:56:41;102522.91;;;6.51;76.17
58471;BME280;44258;51.288;12.068;2023-02-12T05:59:13;102520.19;;;6.57;76.21
58471;BME280;44258;51.288;12.068;2023-02-12T06:01:41;102525.53;;;6.66;75.97
58471;BME280;44258;51.288;12.068;2023-02-12T06:04:12;102522.81;;;6.71;76.04
58471;BME280;44258;51.288;12.068;2023-02-12T06:06:39;102527.28;;;6.70;75.21
58471;BME280;44258;51.288;12.068;2023-02-12T06:09:06;102530.88;;;6.62;75.33
58471;BME280;44258;51.288;12.068;2023-02-12T06:11:32;102529.06;;;6.64;75.57
58471;BME280;44258;51.288;12.068;2023-02-12T06:14:01;102535.31;;;6.70;75.29
58471;BME280;44258;51.288;12.068;2023-02-12T06:16:28;102531.75;;;6.67;75.32
58471;BME280;44258;51.288;12.068;2023-02-12T06:18:55;102537.09;;;6.67;75.29
58471;BME280;44258;51.288;12.068;2023-02-12T06:21:24;102538.91;;;6.66;75.05
58471;BME280;44258;51.288;12.068;2023-02-12T06:23:51;102546.94;;;6.60;75.10
58471;BME280;44258;51.288;12.068;2023-02-12T06:26:18;102551.41;;;6.55;75.50
58471;BME280;44258;51.288;12.068;2023-02-12T06:28:44;102550.53;;;6.50;75.77
58471;BME280;44258;51.288;12.068;2023-02-12T06:31:17;102555.88;;;6.48;75.89
58471;BME280;44258;51.288;12.068;2023-02-12T06:33:45;102557.66;;;6.49;76.01
58471;BME280;44258;51.288;12.068;2023-02-12T06:36:11;102554.13;;;6.43;76.28
58471;BME280;44258;51.288;12.068;2023-02-12T06:38:38;102555.03;;;6.39;76.55
58471;BME280;44258;51.288;12.068;2023-02-12T06:41:04;102562.16;;;6.40;76.54
58471;BME280;44258;51.288;12.068;2023-02-12T06:43:31;102563.00;;;6.46;75.86
58471;BME280;44258;51.288;12.068;2023-02-12T06:45:59;102567.47;;;6.49;76.05
58471;BME280;44258;51.288;12.068;2023-02-12T06:48:26;102563.00;;;6.49;75.81
58471;BME280;44258;51.288;12.068;2023-02-12T06:50:55;102570.13;;;6.52;75.81
58471;BME280;44258;51.288;12.068;2023-02-12T06:53:21;102575.47;;;6.58;75.74
58471;BME280;44258;51.288;12.068;2023-02-12T06:55:48;102576.34;;;6.60;75.51
58471;BME280;44258;51.288;12.068;2023-02-12T06:58:14;102579.94;;;6.50;75.58
58471;BME280;44258;51.288;12.068;2023-02-12T07:00:41;102579.06;;;6.45;75.74
58471;BME280;44258;51.288;12.068;2023-02-12T07:03:08;102587.94;;;6.47;76.16
58471;BME280;44258;51.288;12.068;2023-02-12T07:05:38;102581.72;;;6.54;75.88
58471;BME280;44258;51.288;12.068;2023-02-12T07:08:05;102577.22;;;6.59;75.40
58471;BME280;44258;51.288;12.068;2023-02-12T07:10:32;102580.78;;;6.63;75.67
58471;BME280;44258;51.288;12.068;2023-02-12T07:12:58;102586.13;;;6.61;75.54
58471;BME280;44258;51.288;12.068;2023-02-12T07:15:25;102591.50;;;6.50;75.79
58471;BME280;44258;51.288;12.068;2023-02-12T07:17:51;102590.63;;;6.47;75.83
58471;BME280;44258;51.288;12.068;2023-02-12T07:20:18;102590.63;;;6.41;76.24
58471;BME280;44258;51.288;12.068;2023-02-12T07:22:44;102597.75;;;6.43;76.22
58471;BME280;44258;51.288;12.068;2023-02-12T07:25:12;102601.34;;;6.44;76.58
58471;BME280;44258;51.288;12.068;2023-02-12T07:27:38;102594.19;;;6.49;76.29
58471;BME280;44258;51.288;12.068;2023-02-12T07:30:06;102600.41;;;6.54;76.33
58471;BME280;44258;51.288;12.068;2023-02-12T07:32:33;102605.72;;;6.62;76.18
58471;BME280;44258;51.288;12.068;2023-02-12T07:34:59;102603.97;;;6.61;75.77
58471;BME280;44258;51.288;12.068;2023-02-12T07:37:26;102612.88;;;6.64;76.00
58471;BME280;44258;51.288;12.068;2023-02-12T07:39:52;102612.88;;;6.63;76.00
58471;BME280;44258;51.288;12.068;2023-02-12T07:42:20;102622.69;;;6.62;75.91
58471;BME280;44258;51.288;12.068;2023-02-12T07:44:47;102621.78;;;6.66;76.20
58471;BME280;44258;51.288;12.068;2023-02-12T07:47:14;102617.28;;;6.71;75.78
58471;BME280;44258;51.288;12.068;2023-02-12T07:49:40;102615.50;;;6.73;75.58
58471;BME280;44258;51.288;12.068;2023-02-12T07:52:07;102625.31;;;6.76;75.68
58471;BME280;44258;51.288;12.068;2023-02-12T07:54:33;102627.06;;;6.76;75.46
58471;BME280;44258;51.288;12.068;2023-02-12T07:57:00;102632.41;;;6.77;75.40
58471;BME280;44258;51.288;12.068;2023-02-12T07:59:27;102624.41;;;6.76;75.82
58471;BME280;44258;51.288;12.068;2023-02-12T08:01:54;102627.97;;;6.82;75.46
58471;BME280;44258;51.288;12.068;2023-02-12T08:04:24;102633.25;;;6.90;75.47
58471;BME280;44258;51.288;12.068;2023-02-12T08:06:51;102640.38;;;6.96;75.25
58471;BME280;44258;51.288;12.068;2023-02-12T08:09:20;102644.84;;;6.97;74.97
58471;BME280;44258;51.288;12.068;2023-02-12T08:11:47;102643.03;;;7.02;75.11
58471;BME280;44258;51.288;12.068;2023-02-12T08:14:15;102651.06;;;7.05;75.15
58471;BME280;44258;51.288;12.068;2023-02-12T08:16:45;102643.88;;;7.08;75.08
58471;BME280;44258;51.288;12.068;2023-02-12T08:19:12;102649.22;;;7.13;74.83
58471;BME280;44258;51.288;12.068;2023-02-12T08:21:38;102650.13;;;7.13;74.69
58471;BME280;44258;51.288;12.068;2023-02-12T08:24:06;102649.19;;;7.14;74.90
58471;BME280;44258;51.288;12.068;2023-02-12T08:26:35;102645.63;;;7.14;74.87
58471;BME280;44258;51.288;12.068;2023-02-12T08:29:04;102650.09;;;7.17;74.84
58471;BME280;44258;51.288;12.068;2023-02-12T08:31:33;102645.63;;;7.19;74.85
58471;BME280;44258;51.288;12.068;2023-02-12T08:34:01;102652.78;;;7.13;75.10
58471;BME280;44258;51.288;12.068;2023-02-12T08:36:29;102651.00;;;7.17;75.34
58471;BME280;44258;51.288;12.068;2023-02-12T08:38:57;102655.41;;;7.24;75.11
58471;BME280;44258;51.288;12.068;2023-02-12T08:41:25;102648.25;;;7.28;75.20
58471;BME280;44258;51.288;12.068;2023-02-12T08:43:55;102651.81;;;7.31;74.99
58471;BME280;44258;51.288;12.068;2023-02-12T08:46:24;102652.69;;;7.35;74.84
58471;BME280;44258;51.288;12.068;2023-02-12T08:48:52;102653.56;;;7.36;74.71
58471;BME280;44258;51.288;12.068;2023-02-12T08:51:22;102664.25;;;7.39;75.10
58471;BME280;44258;51.288;12.068;2023-02-12T08:53:52;102658.91;;;7.43;74.84
58471;BME280;44258;51.288;12.068;2023-02-12T08:56:19;102660.63;;;7.49;74.63
58471;BME280;44258;51.288;12.068;2023-02-12T08:58:45;102666.88;;;7.46;74.70
58471;BME280;44258;51.288;12.068;2023-02-12T09:01:14;102667.81;;;7.45;74.71
58471;BME280;44258;51.288;12.068;2023-02-12T09:03:42;102666.88;;;7.49;74.80
58471;BME280;44258;51.288;12.068;2023-02-12T09:06:09;102674.91;;;7.46;74.64
58471;BME280;44258;51.288;12.068;2023-02-12T09:08:39;102670.47;;;7.45;75.03
58471;BME280;44258;51.288;12.068;2023-02-12T09:11:07;102670.41;;;7.54;75.01
58471;BME280;44258;51.288;12.068;2023-02-12T09:13:34;102674.00;;;7.53;74.79
58471;BME280;44258;51.288;12.068;2023-02-12T09:16:02;102682.91;;;7.56;75.80
58471;BME280;44258;51.288;12.068;2023-02-12T09:18:29;102680.19;;;7.62;75.42
58471;BME280;44258;51.288;12.068;2023-02-12T09:21:00;102683.81;;;7.56;75.86
58471;BME280;44258;51.288;12.068;2023-02-12T09:23:30;102688.25;;;7.59;76.04
58471;BME280;44258;51.288;12.068;2023-02-12T09:25:58;102686.41;;;7.68;75.91
58471;BME280;44258;51.288;12.068;2023-02-12T09:28:25;102693.50;;;7.71;75.86
58471;BME280;44258;51.288;12.068;2023-02-12T09:30:51;102692.59;;;7.73;75.52
58471;BME280;44258;51.288;12.068;2023-02-12T09:33:18;102699.75;;;7.73;75.97
58471;BME280;44258;51.288;12.068;2023-02-12T09:35:44;102695.31;;;7.72;75.91
58471;BME280;44258;51.288;12.068;2023-02-12T09:38:11;102701.50;;;7.75;76.06
58471;BME280;44258;51.288;12.068;2023-02-12T09:40:43;102702.44;;;7.73;76.25
58471;BME280;44258;51.288;12.068;2023-02-12T09:43:25;102709.53;;;7.77;76.29
58471;BME280;44258;51.288;12.068;2023-02-12T09:46:00;102701.50;;;7.85;75.86
58471;BME280;44258;51.288;12.068;2023-02-12T09:48:41;102703.25;;;7.86;75.73
58471;BME280;44258;51.288;12.068;2023-02-12T09:51:11;102705.09;;;7.81;75.69
58471;BME280;44258;51.288;12.068;2023-02-12T09:53:41;102707.75;;;7.79;76.09
58471;BME280;44258;51.288;12.068;2023-02-12T09:56:15;102716.69;;;7.81;76.09
58471;BME280;44258;51.288;12.068;2023-02-12T09:58:48;102714.03;;;7.73;76.36
58471;BME280;44258;51.288;12.068;2023-02-12T10:01:18;102713.19;;;7.67;76.84
58471;BME280;44258;51.288;12.068;2023-02-12T10:03:47;102714.03;;;7.73;76.54
58471;BME280;44258;51.288;12.068;2023-02-12T10:06:16;102716.69;;;7.78;76.54
58471;BME280;44258;51.288;12.068;2023-02-12T10:08:59;102724.78;;;7.72;76.75
58471;BME280;44258;51.288;12.068;2023-02-12T10:11:45;102728.28;;;7.86;76.25
58471;BME280;44258;51.288;12.068;2023-02-12T10:14:33;102723.81;;;7.88;76.16
58471;BME280;44258;51.288;12.068;2023-02-12T10:17:13;102726.41;;;7.98;75.96
58471;BME280;44258;51.288;12.068;2023-02-12T10:19:53;102727.31;;;7.97;76.00
58471;BME280;44258;51.288;12.068;2023-02-12T10:22:32;102723.78;;;7.94;75.94
58471;BME280;44258;51.288;12.068;2023-02-12T10:25:11;102730.84;;;8.02;75.81
58471;BME280;44258;51.288;12.068;2023-02-12T10:27:48;102724.50;;;8.13;75.48
58471;BME280;44258;51.288;12.068;2023-02-12T10:30:20;102728.06;;;8.17;75.51
58471;BME280;44258;51.288;12.068;2023-02-12T10:32:50;102728.00;;;8.25;75.18
58471;BME280;44258;51.288;12.068;2023-02-12T10:35:20;102723.59;;;8.21;75.21
58471;BME280;44258;51.288;12.068;2023-02-12T10:37:52;102711.91;;;8.26;74.89
58471;BME280;44258;51.288;12.068;2023-02-12T10:40:23;102708.38;;;8.23;75.26
58471;BME280;44258;51.288;12.068;2023-02-12T10:42:52;102710.09;;;8.30;75.07
58471;BME280;44258;51.288;12.068;2023-02-12T10:45:23;102720.88;;;8.22;75.18
58471;BME280;44258;51.288;12.068;2023-02-12T10:47:52;102712.75;;;8.31;75.13
58471;BME280;44258;51.288;12.068;2023-02-12T10:50:39;102712.75;;;8.31;75.07
58471;BME280;44258;51.288;12.068;2023-02-12T10:53:14;102713.63;;;8.33;74.86
58471;BME280;44258;51.288;12.068;2023-02-12T10:55:42;102711.78;;;8.42;74.55
58471;BME280;44258;51.288;12.068;2023-02-12T10:58:18;102716.25;;;8.40;74.45
58471;BME280;44258;51.288;12.068;2023-02-12T11:00:55;102726.22;;;8.27;74.70
58471;BME280;44258;51.288;12.068;2023-02-12T11:03:28;102715.38;;;8.38;74.46
58471;BME280;44258;51.288;12.068;2023-02-12T11:05:55;102711.72;;;8.45;74.15
58471;BME280;44258;51.288;12.068;2023-02-12T11:08:31;102716.22;;;8.46;74.32
58471;BME280;44258;51.288;12.068;2023-02-12T11:11:07;102711.72;;;8.49;74.23
58471;BME280;44258;51.288;12.068;2023-02-12T11:13:35;102703.63;;;8.56;73.91
58471;BME280;44258;51.288;12.068;2023-02-12T11:16:04;102702.69;;;8.60;74.02
58471;BME280;44258;51.288;12.068;2023-02-12T11:18:31;102698.13;;;8.66;73.47
58471;BME280;44258;51.288;12.068;2023-02-12T11:21:00;102707.06;;;8.68;73.51
58471;BME280;44258;51.288;12.068;2023-02-12T11:23:29;102692.91;;;8.51;73.75
58471;BME280;44258;51.288;12.068;2023-02-12T11:26:00;102695.50;;;8.62;73.69
58471;BME280;44258;51.288;12.068;2023-02-12T11:28:27;102702.63;;;8.64;73.56
58471;BME280;44258;51.288;12.068;2023-02-12T11:30:57;102695.63;;;8.46;73.93
58471;BME280;44258;51.288;12.068;2023-02-12T11:33:31;102696.63;;;8.34;74.44
58471;BME280;44258;51.288;12.068;2023-02-12T11:35:59;102694.88;;;8.30;74.61
58471;BME280;44258;51.288;12.068;2023-02-12T11:38:30;102697.56;;;8.33;74.53
58471;BME280;44258;51.288;12.068;2023-02-12T11:41:01;102693.03;;;8.39;74.34
58471;BME280;44258;51.288;12.068;2023-02-12T11:43:29;102696.56;;;8.41;74.12
58471;BME280;44258;51.288;12.068;2023-02-12T11:45:58;102694.97;;;8.21;74.81
58471;BME280;44258;51.288;12.068;2023-02-12T11:48:30;102690.38;;;8.36;74.48
58471;BME280;44258;51.288;12.068;2023-02-12T11:51:01;102692.19;;;8.35;74.15
58471;BME280;44258;51.288;12.068;2023-02-12T11:53:30;102691.59;;;7.98;75.54
58471;BME280;44258;51.288;12.068;2023-02-12T11:56:00;102693.31;;;8.06;75.50
58471;BME280;44258;51.288;12.068;2023-02-12T11:58:28;102690.66;;;8.03;75.27
58471;BME280;44258;51.288;12.068;2023-02-12T12:01:03;102689.88;;;7.90;76.03
58471;BME280;44258;51.288;12.068;2023-02-12T12:03:37;102682.53;;;8.14;75.20
58471;BME280;44258;51.288;12.068;2023-02-12T12:06:07;102687.69;;;8.37;74.73
58471;BME280;44258;51.288;12.068;2023-02-12T12:08:41;102686.66;;;8.52;74.32
58471;BME280;44258;51.288;12.068;2023-02-12T12:11:13;102682.97;;;8.61;73.41
58471;BME280;44258;51.288;12.068;2023-02-12T12:13:46;102687.41;;;8.63;73.47
58471;BME280;44258;51.288;12.068;2023-02-12T12:16:19;102681.97;;;8.71;73.36
58471;BME280;44258;51.288;12.068;2023-02-12T12:19:14;102681.97;;;8.76;73.49
58471;BME280;44258;51.288;12.068;2023-02-12T12:22:04;102680.09;;;8.81;73.30
58471;BME280;44258;51.288;12.068;2023-02-12T12:24:39;102676.44;;;8.88;73.25
58471;BME280;44258;51.288;12.068;2023-02-12T12:27:14;102681.91;;;8.82;73.11
58471;BME280;44258;51.288;12.068;2023-02-12T12:30:15;102680.03;;;8.85;73.21
58471;BME280;44258;51.288;12.068;2023-02-12T12:32:46;102681.84;;;8.85;73.05
58471;BME280;44258;51.288;12.068;2023-02-12T12:35:17;102685.41;;;8.87;73.13
58471;BME280;44258;51.288;12.068;2023-02-12T12:37:50;102690.69;;;8.91;72.86
58471;BME280;44258;51.288;12.068;2023-02-12T12:40:35;102682.69;;;8.88;72.80
58471;BME280;44258;51.288;12.068;2023-02-12T12:43:12;102680.03;;;8.87;72.73
58471;BME280;44258;51.288;12.068;2023-02-12T12:45:58;102679.16;;;8.86;73.00
58471;BME280;44258;51.288;12.068;2023-02-12T12:49:01;102676.41;;;8.91;73.13
58471;BME280;44258;51.288;12.068;2023-02-12T12:51:50;102665.66;;;8.94;72.59
58471;BME280;44258;51.288;12.068;2023-02-12T12:54:35;102666.47;;;8.98;72.66
58471;BME280;44258;51.288;12.068;2023-02-12T12:57:09;102657.63;;;8.91;72.69
58471;BME280;44258;51.288;12.068;2023-02-12T13:00:05;102666.53;;;8.93;72.86
58471;BME280;44258;51.288;12.068;2023-02-12T13:03:10;102664.66;;;9.01;72.62
58471;BME280;44258;51.288;12.068;2023-02-12T13:08:48;102656.66;;;8.98;72.15
58471;BME280;44258;51.288;12.068;2023-02-12T13:11:29;102652.13;;;9.02;72.43